createdAt,value
2023-05-24T04:31:33.161Z,400.0000
2023-05-24T04:32:35.000Z,400.0000
2023-05-24T04:33:37.036Z,400.0000
2023-05-24T04:34:39.164Z,400.0000
2023-05-24T04:35:41.114Z,400.0000
2023-05-24T04:36:43.148Z,400.0000
2023-05-24T04:37:45.217Z,400.0000
2023-05-24T04:38:47.278Z,400.0000
2023-05-24T04:39:49.379Z,400.0000
2023-05-24T04:40:51.345Z,400.0000
2023-05-24T04:41:53.407Z,400.0000
2023-05-24T04:42:55.420Z,400.0000
2023-05-24T04:43:57.449Z,400.0000
2023-05-24T04:44:59.514Z,400.0000
2023-05-24T04:46:01.559Z,400.0000
2023-05-24T04:47:03.687Z,400.0000
2023-05-24T04:48:05.696Z,400.0000
2023-05-24T04:49:07.673Z,400.0000
2023-05-24T04:50:09.761Z,400.0000
2023-05-24T04:51:11.781Z,400.0000
2023-05-24T04:52:13.838Z,400.0000
2023-05-24T04:53:15.871Z,400.0000
2023-05-24T04:54:17.914Z,400.0000
2023-05-24T04:55:19.949Z,400.0000
2023-05-24T04:56:21.989Z,400.0000
2023-05-24T04:57:24.035Z,400.0000
2023-05-24T04:58:26.087Z,400.6923
2023-05-24T04:59:28.111Z,408.7692
2023-05-24T05:00:30.174Z,442.4615
2023-05-24T05:01:32.222Z,432.6154
2023-05-24T05:02:34.301Z,417.7692
2023-05-24T05:03:36.412Z,414.0000
2023-05-24T05:04:38.326Z,445.0769
2023-05-24T05:05:40.376Z,505.2308
2023-05-24T05:06:42.442Z,553.6923
2023-05-24T05:07:44.496Z,603.6154
2023-05-24T05:08:46.519Z,602.5385
2023-05-24T05:09:48.588Z,532.0769
2023-05-24T05:10:50.633Z,554.6923
2023-05-24T05:11:52.672Z,562.6154
2023-05-24T05:12:54.706Z,588.5385
2023-05-24T05:13:56.798Z,593.5385
2023-05-24T05:14:58.796Z,867.4615
2023-05-24T05:16:00.882Z,672.5385
2023-05-24T05:17:02.912Z,554.8461
2023-05-24T05:18:04.991Z,563.9231
2023-05-24T05:19:07.007Z,569.3846
2023-05-24T05:20:09.133Z,527.1539
2023-05-24T05:21:11.070Z,522.0000
2023-05-24T05:22:13.114Z,525.1539
2023-05-24T05:23:15.287Z,490.2308
2023-05-24T05:24:17.243Z,512.0000
2023-05-24T05:25:19.277Z,521.4615
2023-05-24T05:26:21.313Z,525.6923
2023-05-24T05:27:23.355Z,505.3077
2023-05-24T05:28:25.398Z,478.9231
2023-05-24T05:29:27.424Z,475.3846
2023-05-24T05:30:29.513Z,467.7692
2023-05-24T05:31:31.538Z,462.5385
2023-05-24T05:32:33.633Z,463.1538
2023-05-24T05:33:35.643Z,449.6923
2023-05-24T05:34:37.671Z,448.5385
2023-05-24T05:35:39.718Z,446.8462
2023-05-24T05:36:41.754Z,453.8462
2023-05-24T05:37:43.852Z,459.2308
2023-05-24T05:38:45.830Z,441.2308
2023-05-24T05:39:47.913Z,463.0769
2023-05-24T05:40:49.949Z,444.0769
2023-05-24T05:41:51.987Z,459.2308
2023-05-24T05:42:54.025Z,439.0769
2023-05-24T05:43:56.347Z,426.9231
2023-05-24T05:44:58.166Z,428.2308
2023-05-24T05:46:00.230Z,419.4615
2023-05-24T05:47:02.254Z,427.4615
2023-05-24T05:48:04.334Z,425.3077
2023-05-24T05:49:06.398Z,431.3077
2023-05-24T05:50:08.406Z,418.0769
2023-05-24T05:51:10.450Z,409.3846
2023-05-24T05:52:12.482Z,434.9231
2023-05-24T05:53:14.523Z,416.4615
2023-05-24T05:54:16.601Z,427.8462
2023-05-24T05:55:18.594Z,439.4615
2023-05-24T05:56:20.647Z,431.7692
2023-05-24T05:57:22.753Z,456.0769
2023-05-24T05:58:24.757Z,428.5385
2023-05-24T05:59:26.804Z,439.3077
2023-05-24T06:00:28.957Z,415.8462
2023-05-24T06:01:30.866Z,437.5385
2023-05-24T06:02:32.970Z,426.0769
2023-05-24T06:03:35.200Z,435.5385
2023-05-24T06:04:37.059Z,434.9231
2023-05-24T06:05:39.063Z,427.9231
2023-05-24T06:06:41.154Z,418.0000
2023-05-24T06:07:43.165Z,421.1538
2023-05-24T06:08:45.282Z,434.0000
2023-05-24T06:09:47.310Z,432.6923
2023-05-24T06:10:52.039Z,442.4615
2023-05-24T06:11:51.389Z,446.6154
2023-05-24T06:12:53.473Z,457.6154
2023-05-24T06:13:55.457Z,452.2308
2023-05-24T06:14:57.561Z,442.7692
2023-05-24T06:15:59.566Z,452.2308
2023-05-24T06:17:01.690Z,444.0000
2023-05-24T06:18:03.819Z,444.3077
2023-05-24T06:19:06.603Z,446.6923
2023-05-24T06:20:07.764Z,454.3077
2023-05-24T06:21:09.807Z,445.3077
2023-05-24T06:22:11.807Z,459.2308
2023-05-24T06:23:14.016Z,456.6923
2023-05-24T06:24:15.901Z,455.2308
2023-05-24T06:25:18.008Z,461.3846
2023-05-24T06:26:20.002Z,465.3077
2023-05-24T06:27:22.151Z,466.6154
2023-05-24T06:28:24.080Z,467.3077
2023-05-24T06:29:26.154Z,468.3077
2023-05-24T06:30:28.385Z,465.9231
2023-05-24T06:31:30.221Z,470.8462
2023-05-24T06:32:32.380Z,457.7692
2023-05-24T06:33:35.766Z,456.8462
2023-05-24T06:34:36.371Z,479.7692
2023-05-24T06:35:38.413Z,476.8462
2023-05-24T06:36:40.465Z,475.4615
2023-05-24T06:37:42.497Z,461.9231
2023-05-24T06:38:44.514Z,461.3077
2023-05-24T06:39:46.626Z,457.6154
2023-05-24T06:40:48.605Z,456.4615
2023-05-24T06:41:50.659Z,467.0769
2023-05-24T06:42:52.736Z,466.8462
2023-05-24T06:43:54.772Z,460.6154
2023-05-24T06:44:56.841Z,465.0000
2023-05-24T06:45:58.884Z,472.7692
2023-05-24T06:47:01.007Z,458.0000
2023-05-24T06:48:05.024Z,455.2308
2023-05-24T06:49:05.054Z,465.3077
2023-05-24T06:50:07.033Z,460.8462
2023-05-24T06:51:09.091Z,469.4615
2023-05-24T06:52:11.130Z,485.3077
2023-05-24T06:53:13.236Z,495.5385
2023-05-24T06:54:15.243Z,487.4615
2023-05-24T06:55:17.254Z,471.3846
2023-05-24T06:56:19.322Z,483.0000
2023-05-24T06:57:21.355Z,494.6923
2023-05-24T06:58:23.392Z,488.3077
2023-05-24T06:59:25.473Z,494.8462
2023-05-24T07:00:27.583Z,492.6154
2023-05-24T07:01:29.671Z,490.8333
2023-05-24T07:02:31.622Z,481.2308
2023-05-24T07:03:33.642Z,479.5385
2023-05-24T07:04:37.532Z,490.7692
2023-05-24T07:05:37.719Z,489.1538
2023-05-24T07:06:39.829Z,468.9231
2023-05-24T07:07:41.817Z,470.5385
2023-05-24T07:08:43.833Z,479.3846
2023-05-24T07:09:45.896Z,488.0000
2023-05-24T07:10:48.119Z,502.1538
2023-05-24T07:11:50.020Z,519.6923
2023-05-24T07:12:52.016Z,507.2308
2023-05-24T07:13:54.076Z,503.7692
2023-05-24T07:14:56.120Z,504.7692
2023-05-24T07:15:58.158Z,497.8462
2023-05-24T07:17:00.340Z,494.3077
2023-05-24T07:18:02.342Z,496.4615
2023-05-24T07:19:04.949Z,497.6154
2023-05-24T07:20:06.359Z,491.0000
2023-05-24T07:21:08.404Z,496.1538
2023-05-24T07:22:10.496Z,503.3846
2023-05-24T07:23:12.552Z,494.3077
2023-05-24T07:24:16.229Z,484.6154
2023-05-24T07:25:16.581Z,482.3846
2023-05-24T07:26:18.644Z,472.5385
2023-05-24T07:27:20.650Z,466.3846
2023-05-24T07:28:22.741Z,464.1538
2023-05-24T07:29:24.981Z,471.4615
2023-05-24T07:30:32.301Z,463.1538
2023-05-24T07:31:28.870Z,466.8462
2023-05-24T07:32:30.990Z,459.2308
2023-05-24T07:33:33.040Z,471.7692
2023-05-24T07:34:35.027Z,494.8462
2023-05-24T07:35:37.087Z,488.1538
2023-05-24T07:36:39.301Z,468.6154
2023-05-24T07:37:41.228Z,455.9231
2023-05-24T07:38:43.328Z,456.3846
2023-05-24T07:39:45.224Z,457.6154
2023-05-24T07:40:47.340Z,464.0769
2023-05-24T07:41:49.330Z,609.0000
2023-05-24T07:42:51.416Z,693.9231
2023-05-24T07:43:53.478Z,606.3846
2023-05-24T07:44:55.549Z,561.7692
2023-05-24T07:45:57.522Z,508.7692
2023-05-24T07:46:59.731Z,498.2308
2023-05-24T07:48:01.861Z,496.0000
2023-05-24T07:49:03.673Z,486.8462
2023-05-24T07:50:06.065Z,482.5385
2023-05-24T07:51:08.059Z,473.3077
2023-05-24T07:52:09.784Z,468.5385
2023-05-24T07:53:11.853Z,468.2308
2023-05-24T07:54:13.894Z,473.1538
2023-05-24T07:55:15.940Z,464.0000
2023-05-24T07:56:17.953Z,476.4615
2023-05-24T07:57:20.035Z,510.4615
2023-05-24T07:58:22.093Z,482.8462
2023-05-24T07:59:24.106Z,475.3077
2023-05-24T08:00:26.259Z,459.7692
2023-05-24T08:01:28.213Z,466.1538
2023-05-24T08:02:30.439Z,463.7692
2023-05-24T08:03:32.379Z,470.0000
2023-05-24T08:04:34.367Z,477.0769
2023-05-24T08:05:36.562Z,467.6923
2023-05-24T08:06:38.496Z,471.3846
2023-05-24T08:07:40.469Z,476.2308
2023-05-24T08:08:42.555Z,489.5385
2023-05-24T08:09:44.651Z,486.1538
2023-05-24T08:10:46.604Z,499.0000
2023-05-24T08:11:48.664Z,486.6154
2023-05-24T08:12:50.667Z,488.0000
2023-05-24T08:13:52.721Z,493.3077
2023-05-24T08:14:55.272Z,493.0769
2023-05-24T08:15:56.879Z,481.7692
2023-05-24T08:16:58.887Z,475.6923
2023-05-24T08:18:00.973Z,470.7692
2023-05-24T08:19:03.017Z,469.6923
2023-05-24T08:20:05.084Z,459.0000
2023-05-24T08:21:07.035Z,464.1538
2023-05-24T08:22:09.239Z,470.7692
2023-05-24T08:23:11.351Z,465.4615
2023-05-24T08:24:13.186Z,479.9231
2023-05-24T08:25:16.974Z,467.9231
2023-05-24T08:26:17.486Z,463.9231
2023-05-24T08:27:19.314Z,459.0000
2023-05-24T08:28:21.484Z,455.7692
2023-05-24T08:29:23.423Z,450.6154
2023-05-24T08:30:25.734Z,443.9231
2023-05-24T08:31:27.564Z,446.5385
2023-05-24T08:32:29.587Z,446.7692
2023-05-24T08:33:31.630Z,442.6923
2023-05-24T08:34:33.747Z,442.4615
2023-05-24T08:35:35.776Z,450.3846
2023-05-24T08:36:37.831Z,446.6154
2023-05-24T08:37:39.955Z,447.6154
2023-05-24T08:38:41.927Z,439.7692
2023-05-24T08:39:44.120Z,447.0769
2023-05-24T08:40:46.076Z,430.4615
2023-05-24T08:42:01.026Z,434.5385
2023-05-24T08:42:50.151Z,433.5385
2023-05-24T08:43:52.185Z,431.4615
2023-05-24T08:44:54.205Z,438.9231
2023-05-24T08:45:56.282Z,435.3077
2023-05-24T08:46:58.369Z,431.1538
2023-05-24T08:48:00.463Z,434.1538
2023-05-24T08:49:02.548Z,428.5385
2023-05-24T08:50:04.499Z,437.1538
2023-05-24T08:51:06.630Z,454.0000
2023-05-24T08:52:08.642Z,457.4615
2023-05-24T08:53:10.573Z,477.6154
2023-05-24T08:54:12.662Z,477.0769
2023-05-24T08:55:14.680Z,467.2308
2023-05-24T08:56:16.780Z,464.5385
2023-05-24T08:57:18.756Z,466.8462
2023-05-24T08:58:20.838Z,472.5385
2023-05-24T08:59:22.856Z,476.3077
2023-05-24T09:00:24.931Z,481.0769
2023-05-24T09:01:28.953Z,462.3846
2023-05-24T09:02:29.007Z,473.7692
2023-05-24T09:03:31.148Z,472.6923
2023-05-24T09:04:33.109Z,480.0769
2023-05-24T09:05:35.168Z,472.0000
2023-05-24T09:06:37.191Z,478.6923
2023-05-24T09:07:39.259Z,468.2308
2023-05-24T09:08:43.628Z,468.3077
2023-05-24T09:09:43.323Z,455.6923
2023-05-24T09:10:54.554Z,445.4615
2023-05-24T09:11:47.423Z,447.8462
2023-05-24T09:12:49.470Z,480.1538
2023-05-24T09:13:51.488Z,475.6154
2023-05-24T09:14:53.621Z,474.3846
2023-05-24T09:15:55.661Z,598.8461
2023-05-24T09:16:57.665Z,481.1538
2023-05-24T09:17:59.702Z,461.0000
2023-05-24T09:19:01.747Z,460.1538
2023-05-24T09:20:03.856Z,466.9231
2023-05-24T09:21:05.866Z,473.3846
2023-05-24T09:22:08.202Z,469.5385
2023-05-24T09:23:10.032Z,471.6154
2023-05-24T09:24:11.995Z,468.6154
2023-05-24T09:25:14.083Z,462.0769
2023-05-24T09:26:16.120Z,467.9231
2023-05-24T09:27:18.122Z,468.6154
2023-05-24T09:28:20.167Z,454.4615
2023-05-24T09:29:22.359Z,446.8462
2023-05-24T09:30:24.279Z,450.2308
2023-05-24T09:31:26.344Z,442.6923
2023-05-24T09:32:28.437Z,440.6154
2023-05-24T09:33:30.393Z,439.4615
2023-05-24T09:34:32.407Z,447.5385
2023-05-24T09:35:34.645Z,442.6923
2023-05-24T09:36:36.545Z,448.0769
2023-05-24T09:37:38.757Z,444.3077
2023-05-24T09:38:40.691Z,441.8462
2023-05-24T09:39:42.701Z,438.3077
2023-05-24T09:40:44.727Z,446.9231
2023-05-24T09:41:46.910Z,447.6923
2023-05-24T09:42:49.834Z,469.9231
2023-05-24T09:43:50.896Z,477.0000
2023-05-24T09:44:53.184Z,481.2308
2023-05-24T09:45:54.960Z,467.1538
2023-05-24T09:46:57.027Z,471.6923
2023-05-24T09:47:59.137Z,463.0000
2023-05-24T09:49:01.081Z,450.6923
2023-05-24T09:50:03.165Z,437.6154
2023-05-24T09:51:05.196Z,434.8462
2023-05-24T09:52:07.305Z,426.4615
2023-05-24T09:53:09.289Z,430.4615
2023-05-24T09:54:11.296Z,430.7692
2023-05-24T09:55:13.366Z,442.8462
2023-05-24T09:56:15.430Z,434.9231
2023-05-24T09:57:17.427Z,434.5385
2023-05-24T09:58:19.484Z,435.3077
2023-05-24T09:59:21.553Z,441.7692
2023-05-24T10:00:23.658Z,443.1538
2023-05-24T10:01:25.688Z,443.5385
2023-05-24T10:02:31.369Z,441.6154
2023-05-24T10:03:29.864Z,448.0000
2023-05-24T10:04:31.861Z,444.6923
2023-05-24T10:05:33.938Z,443.0769
2023-05-24T10:06:35.871Z,435.6923
2023-05-24T10:07:37.903Z,429.6154
2023-05-24T10:08:40.046Z,427.0769
2023-05-24T10:09:42.022Z,430.1538
2023-05-24T10:10:44.456Z,428.5385
2023-05-24T10:11:46.275Z,432.5385
2023-05-24T10:12:48.322Z,429.5385
2023-05-24T10:13:50.214Z,427.8462
2023-05-24T10:14:52.330Z,427.0000
2023-05-24T10:15:54.407Z,415.0000
2023-05-24T10:16:56.389Z,415.6923
2023-05-24T10:17:58.583Z,417.4615
2023-05-24T10:19:00.447Z,519.0769
2023-05-24T10:20:02.556Z,517.2308
2023-05-24T10:21:04.762Z,460.0769
2023-05-24T10:22:06.592Z,435.2308
2023-05-24T10:23:08.628Z,425.2308
2023-05-24T10:24:10.733Z,418.4615
2023-05-24T10:25:12.835Z,416.0000
2023-05-24T10:26:14.833Z,414.6154
2023-05-24T10:27:16.967Z,413.6923
2023-05-24T10:28:18.923Z,416.0000
2023-05-24T10:29:20.938Z,426.1538
2023-05-24T10:30:23.005Z,423.9231
2023-05-24T10:31:25.127Z,420.0769
2023-05-24T10:32:27.203Z,413.6923
2023-05-24T10:33:29.166Z,412.1538
2023-05-24T10:34:31.232Z,413.4615
2023-05-24T10:35:33.246Z,403.2308
2023-05-24T10:36:35.308Z,401.2308
2023-05-24T10:37:38.010Z,401.6154
2023-05-24T10:38:39.434Z,407.4615
2023-05-24T10:39:41.475Z,406.4615
2023-05-24T10:40:43.503Z,411.7692
2023-05-24T10:41:45.608Z,409.5385
2023-05-24T10:42:47.685Z,413.3077
2023-05-24T10:44:07.301Z,417.6154
2023-05-24T10:44:51.743Z,413.8462
2023-05-24T10:45:53.838Z,442.3846
2023-05-24T10:46:55.876Z,451.4615
2023-05-24T10:47:57.907Z,440.7692
2023-05-24T10:48:59.931Z,446.0000
2023-05-24T10:50:02.008Z,441.6154
2023-05-24T10:51:04.210Z,433.0769
2023-05-24T10:52:06.062Z,422.3846
2023-05-24T10:53:08.119Z,423.7692
2023-05-24T10:54:10.191Z,415.0769
2023-05-24T10:55:12.241Z,421.6154
2023-05-24T10:56:14.290Z,413.0769
2023-05-24T10:57:16.350Z,417.7692
2023-05-24T10:58:18.372Z,423.3846
2023-05-24T10:59:20.416Z,411.7692
2023-05-24T11:00:33.683Z,403.1538
2023-05-24T11:01:24.593Z,402.0769
2023-05-24T11:02:26.650Z,400.3846
2023-05-24T11:03:28.923Z,403.3846
2023-05-24T11:04:30.700Z,410.3077
2023-05-24T11:05:32.751Z,421.2308
2023-05-24T11:06:34.811Z,415.2308
2023-05-24T11:07:36.854Z,419.0769
2023-05-24T11:08:38.921Z,524.6154
2023-05-24T11:09:40.944Z,526.5385
2023-05-24T11:10:43.380Z,489.4615
2023-05-24T11:11:45.023Z,472.7692
2023-05-24T11:12:47.125Z,479.3846
2023-05-24T11:13:49.153Z,483.0769
2023-05-24T11:14:51.231Z,463.0769
2023-05-24T11:15:53.281Z,436.6154
2023-05-24T11:16:55.385Z,431.8462
2023-05-24T11:17:57.522Z,421.1538
2023-05-24T11:18:59.408Z,418.0000
2023-05-24T11:20:01.511Z,403.0769
2023-05-24T11:21:04.097Z,400.0000
2023-05-24T11:22:05.561Z,400.0000
2023-05-24T11:23:07.593Z,400.0000
2023-05-24T11:24:09.768Z,400.0000
2023-05-24T11:25:11.692Z,400.0000
2023-05-24T11:26:13.775Z,401.1538
2023-05-24T11:27:15.810Z,408.1538
2023-05-24T11:28:17.900Z,408.2308
2023-05-24T11:29:19.911Z,410.0000
2023-05-24T11:30:21.935Z,417.3846
2023-05-24T11:31:24.035Z,412.7692
2023-05-24T11:32:26.151Z,401.7692
2023-05-24T11:33:28.097Z,401.9231
2023-05-24T11:34:30.116Z,406.9231
2023-05-24T11:35:32.197Z,411.3077
2023-05-24T11:36:34.235Z,419.0769
2023-05-24T11:37:46.135Z,413.0000
2023-05-24T11:38:38.318Z,410.4615
2023-05-24T11:39:40.399Z,416.4615
2023-05-24T11:40:42.675Z,413.6923
2023-05-24T11:41:44.513Z,417.2308
2023-05-24T11:42:46.548Z,413.4615
2023-05-24T11:43:48.603Z,411.3846
2023-05-24T11:44:51.017Z,412.0000
2023-05-24T11:45:52.802Z,415.6923
2023-05-24T11:46:54.781Z,409.5385
2023-05-24T11:47:56.854Z,415.0000
2023-05-24T11:48:58.804Z,421.8462
2023-05-24T11:50:00.847Z,424.0000
2023-05-24T11:51:02.895Z,426.6923
2023-05-24T11:52:04.966Z,439.7692
2023-05-24T11:53:07.027Z,439.9231
2023-05-24T11:54:09.052Z,421.9231
2023-05-24T11:55:11.115Z,429.1538
2023-05-24T11:56:13.136Z,416.5385
2023-05-24T11:57:15.164Z,422.1538
2023-05-24T11:58:17.253Z,423.6154
2023-05-24T11:59:19.279Z,429.0769
2023-05-24T12:00:21.526Z,429.9231
2023-05-24T12:01:23.584Z,432.5385
2023-05-24T12:02:25.443Z,425.6154
2023-05-24T12:03:27.618Z,431.2308
2023-05-24T12:04:29.742Z,427.0769
2023-05-24T12:05:31.558Z,427.7692
2023-05-24T12:06:33.597Z,438.8462
2023-05-24T12:07:35.690Z,445.1538
2023-05-24T12:08:37.678Z,438.4615
2023-05-24T12:09:39.758Z,431.5385
2023-05-24T12:10:41.991Z,436.6154
2023-05-24T12:11:43.870Z,444.6154
2023-05-24T12:12:46.335Z,437.3846
2023-05-24T12:13:47.917Z,430.0769
2023-05-24T12:14:49.932Z,441.0769
2023-05-24T12:15:54.897Z,437.8462
2023-05-24T12:16:54.043Z,435.9231
2023-05-24T12:17:56.719Z,442.2308
2023-05-24T12:19:05.348Z,450.0769
2023-05-24T12:20:00.315Z,436.5385
2023-05-24T12:21:02.237Z,438.0000
2023-05-24T12:22:04.284Z,437.5385
2023-05-24T12:23:06.317Z,432.9231
2023-05-24T12:24:08.418Z,425.6154
2023-05-24T12:25:10.465Z,430.0769
2023-05-24T12:26:12.448Z,436.4615
2023-05-24T12:27:14.529Z,425.9231
2023-05-24T12:28:16.554Z,420.6923
2023-05-24T12:29:18.805Z,424.2308
2023-05-24T12:30:20.642Z,436.4615
2023-05-24T12:31:22.697Z,435.6923
2023-05-24T12:32:24.791Z,429.8462
2023-05-24T12:33:26.781Z,424.3077
2023-05-24T12:34:28.847Z,433.7692
2023-05-24T12:35:30.884Z,428.3846
2023-05-24T12:36:32.941Z,437.6923
2023-05-24T12:37:34.950Z,434.2308
2023-05-24T12:38:37.009Z,437.1538
2023-05-24T12:39:39.141Z,442.4615
2023-05-24T12:40:41.354Z,458.6154
2023-05-24T12:41:43.239Z,459.5385
2023-05-24T12:42:45.335Z,454.2308
2023-05-24T12:43:47.314Z,450.7692
2023-05-24T12:44:49.377Z,440.6154
2023-05-24T12:45:53.604Z,440.5385
2023-05-24T12:46:53.539Z,444.5385
2023-05-24T12:47:55.526Z,446.8462
2023-05-24T12:48:57.545Z,449.0769
2023-05-24T12:49:59.732Z,452.7692
2023-05-24T12:51:01.697Z,450.0000
2023-05-24T12:52:03.693Z,445.9231
2023-05-24T12:53:05.745Z,443.3846
2023-05-24T12:54:07.822Z,438.2308
2023-05-24T12:55:09.985Z,431.0000
2023-05-24T12:56:11.949Z,442.6154
2023-05-24T12:57:13.981Z,444.0769
2023-05-24T12:58:15.986Z,447.7692
2023-05-24T12:59:18.062Z,446.3846
2023-05-24T13:00:20.055Z,463.0000
2023-05-24T13:01:22.366Z,454.6923
2023-05-24T13:02:24.176Z,456.3077
2023-05-24T13:03:26.189Z,453.0000
2023-05-24T13:04:28.264Z,446.3077
2023-05-24T13:05:30.403Z,456.9231
2023-05-24T13:06:32.334Z,455.3846
2023-05-24T13:07:34.454Z,446.3846
2023-05-24T13:08:38.116Z,457.0000
2023-05-24T13:09:38.506Z,464.2308
2023-05-24T13:10:40.654Z,448.6923
2023-05-24T13:11:42.592Z,451.7692
2023-05-24T13:12:44.619Z,463.6154
2023-05-24T13:13:47.133Z,472.4615
2023-05-24T13:14:50.679Z,478.2308
2023-05-24T13:15:50.759Z,464.6154
2023-05-24T13:16:53.073Z,457.3077
2023-05-24T13:17:54.998Z,438.8462
2023-05-24T13:18:56.924Z,449.6154
2023-05-24T13:20:01.726Z,434.8462
2023-05-24T13:21:00.993Z,425.6923
2023-05-24T13:22:03.062Z,445.7692
2023-05-24T13:23:05.111Z,436.8462
2023-05-24T13:24:07.102Z,427.4615
2023-05-24T13:25:09.157Z,423.4615
2023-05-24T13:26:11.239Z,419.3846
2023-05-24T13:27:13.289Z,417.5385
2023-05-24T13:28:15.324Z,416.1538
2023-05-24T13:29:34.181Z,416.7692
2023-05-24T13:30:19.418Z,427.0769
2023-05-24T13:31:21.488Z,418.6154
2023-05-24T13:32:23.574Z,418.4615
2023-05-24T13:33:25.530Z,409.7692
2023-05-24T13:34:27.582Z,411.5385
2023-05-24T13:35:29.620Z,406.6923
2023-05-24T13:36:31.672Z,410.1538
2023-05-24T13:37:33.754Z,435.0769
2023-05-24T13:38:35.769Z,428.4615
2023-05-24T13:39:37.835Z,412.1538
2023-05-24T13:40:41.777Z,421.7692
2023-05-24T13:41:42.174Z,434.8462
2023-05-24T13:42:44.017Z,450.5385
2023-05-24T13:43:45.985Z,453.5385
2023-05-24T13:44:48.032Z,442.6923
2023-05-24T13:45:50.070Z,439.7692
2023-05-24T13:46:52.165Z,442.6923
2023-05-24T13:47:54.216Z,445.7692
2023-05-24T13:48:56.247Z,448.1538
2023-05-24T13:49:58.241Z,440.3077
2023-05-24T13:51:00.301Z,435.3077
2023-05-24T13:52:02.389Z,440.4615
2023-05-24T13:53:04.414Z,454.0000
2023-05-24T13:54:06.437Z,452.9231
2023-05-24T13:55:08.530Z,455.1538
2023-05-24T13:56:10.516Z,465.3846
2023-05-24T13:57:12.652Z,467.0769
2023-05-24T13:58:14.602Z,519.2308
2023-05-24T13:59:16.735Z,605.0000
2023-05-24T14:00:18.737Z,568.3077
2023-05-24T14:01:20.932Z,529.8461
2023-05-24T14:02:22.848Z,517.7692
2023-05-24T14:03:24.835Z,506.6923
2023-05-24T14:04:26.884Z,488.4615
2023-05-24T14:05:28.969Z,476.3846
2023-05-24T14:06:30.987Z,472.8462
2023-05-24T14:07:33.087Z,489.3846
2023-05-24T14:08:35.097Z,893.3077
2023-05-24T14:09:37.217Z,687.0000
2023-05-24T14:10:39.220Z,519.1539
2023-05-24T14:11:41.348Z,518.4615
2023-05-24T14:12:43.287Z,502.3846
2023-05-24T14:15:49.520Z,505.4615
2023-05-24T14:16:51.453Z,504.3077
2023-05-24T14:17:53.605Z,507.1538
2023-05-24T14:18:55.553Z,508.8462
2023-05-24T14:19:57.750Z,503.9231
2023-05-24T14:20:59.655Z,496.8462
2023-05-24T14:22:01.731Z,503.5385
2023-05-24T14:23:03.932Z,499.3846
2023-05-24T14:24:05.809Z,499.3077
2023-05-24T14:25:07.825Z,518.1539
2023-05-24T14:26:09.935Z,520.8461
2023-05-24T14:27:11.907Z,519.6923
2023-05-24T14:28:14.016Z,515.4615
2023-05-24T14:29:16.084Z,517.7692
2023-05-24T14:30:18.125Z,518.0000
2023-05-24T14:31:20.139Z,521.6154
2023-05-24T14:32:22.386Z,508.1538
2023-05-24T14:33:24.180Z,506.0769
2023-05-24T14:34:26.280Z,506.0769
2023-05-24T14:35:28.313Z,518.3846
2023-05-24T14:36:30.407Z,514.8461
2023-05-24T14:37:32.457Z,500.0769
2023-05-24T14:38:34.418Z,503.5385
2023-05-24T14:39:36.477Z,489.6923
2023-05-24T14:40:39.051Z,505.6154
2023-05-24T14:41:40.585Z,497.0000
2023-05-24T14:42:42.605Z,486.2308
2023-05-24T14:43:44.663Z,491.4615
2023-05-24T14:44:46.716Z,495.6923
2023-05-24T14:45:49.094Z,488.5385
2023-05-24T14:46:52.007Z,501.4615
2023-05-24T14:47:52.909Z,515.5385
2023-05-24T14:48:54.919Z,550.0769
2023-05-24T14:49:56.923Z,508.6923
2023-05-24T14:50:58.993Z,499.6923
2023-05-24T14:52:01.089Z,483.8462
2023-05-24T14:53:03.093Z,488.3846
2023-05-24T14:54:05.180Z,504.1538
2023-05-24T14:55:07.215Z,507.8462
2023-05-24T14:56:09.314Z,492.3846
2023-05-24T14:57:11.313Z,486.2308
2023-05-24T14:58:13.346Z,497.5385
2023-05-24T14:59:15.369Z,477.9231
2023-05-24T15:00:19.784Z,473.0769
2023-05-24T15:01:19.526Z,484.5385
2023-05-24T15:02:21.673Z,455.0769
2023-05-24T15:03:23.717Z,458.7692
2023-05-24T15:04:25.617Z,470.4615
2023-05-24T15:05:27.660Z,487.4615
2023-05-24T15:06:29.729Z,485.6154
2023-05-24T15:07:31.797Z,486.8462
2023-05-24T15:08:33.873Z,502.0769
2023-05-24T15:09:35.826Z,506.0769
2023-05-24T15:10:37.939Z,493.3846
2023-05-24T15:11:40.035Z,488.6923
2023-05-24T15:12:42.057Z,486.4615
2023-05-24T15:13:44.056Z,484.3846
2023-05-24T15:14:46.089Z,494.0769
2023-05-24T15:15:48.130Z,501.1538
2023-05-24T15:16:50.232Z,499.3077
2023-05-24T15:17:52.290Z,487.0000
2023-05-24T15:18:54.283Z,481.2308
2023-05-24T15:19:56.337Z,485.0000
2023-05-24T15:20:58.422Z,474.6923
2023-05-24T15:22:00.534Z,485.8462
2023-05-24T15:23:02.439Z,491.7692
2023-05-24T15:24:04.517Z,495.6923
2023-05-24T15:25:06.570Z,578.1539
2023-05-24T15:26:08.636Z,532.2308
2023-05-24T15:27:10.741Z,508.6154
2023-05-24T15:28:12.806Z,495.1538
2023-05-24T15:29:14.736Z,479.1538
2023-05-24T15:30:16.827Z,475.7692
2023-05-24T15:31:18.867Z,474.3846
2023-05-24T15:32:20.864Z,471.8462
2023-05-24T15:33:23.005Z,466.1538
2023-05-24T15:34:24.976Z,452.9231
2023-05-24T15:35:27.020Z,443.8462
2023-05-24T15:36:29.087Z,443.8462
2023-05-24T15:37:31.151Z,435.0000
2023-05-24T15:38:33.164Z,451.5385
2023-05-24T15:39:35.204Z,463.7692
2023-05-24T15:40:37.247Z,453.3846
2023-05-24T15:41:39.336Z,453.6154
2023-05-24T15:42:41.469Z,458.3077
2023-05-24T15:43:43.426Z,441.3077
2023-05-24T15:44:45.440Z,437.5385
2023-05-24T15:45:47.493Z,438.7692
2023-05-24T15:46:49.606Z,446.8462
2023-05-24T15:47:51.682Z,470.7692
2023-05-24T15:48:53.657Z,456.0769
2023-05-24T15:49:55.754Z,445.9231
2023-05-24T15:51:25.693Z,452.0000
2023-05-24T15:52:04.329Z,444.8462
2023-05-24T15:53:02.069Z,450.9231
2023-05-24T15:54:03.921Z,464.3846
2023-05-24T15:55:05.944Z,476.0769
2023-05-24T15:56:08.064Z,487.5385
2023-05-24T15:57:10.079Z,587.2308
2023-05-24T15:58:12.155Z,606.2308
2023-05-24T15:59:14.191Z,576.9231
2023-05-24T16:00:16.224Z,558.3077
2023-05-24T16:01:18.339Z,522.6154
2023-05-24T16:02:21.616Z,542.0769
2023-05-24T16:03:22.505Z,558.0000
2023-05-24T16:04:24.395Z,528.3846
2023-05-24T16:05:26.567Z,548.4615
2023-05-24T16:06:28.498Z,524.5385
2023-05-24T16:07:30.523Z,502.1538
2023-05-24T16:08:32.601Z,493.0769
2023-05-24T16:09:34.641Z,494.6923
2023-05-24T16:10:36.663Z,475.7692
2023-05-24T16:11:38.710Z,473.2308
2023-05-24T16:12:40.888Z,470.3846
2023-05-24T16:13:42.825Z,461.9231
2023-05-24T16:14:44.910Z,505.9231
2023-05-24T16:15:47.005Z,504.5385
2023-05-24T16:16:49.078Z,492.3077
2023-05-24T16:17:51.148Z,511.0769
2023-05-24T16:18:53.099Z,504.0769
2023-05-24T16:19:55.311Z,498.8462
2023-05-24T16:20:57.311Z,515.7692
2023-05-24T16:21:59.237Z,516.3846
2023-05-24T16:23:01.266Z,493.8462
2023-05-24T16:24:03.336Z,522.0769
2023-05-24T16:25:05.357Z,513.0769
2023-05-24T16:26:07.406Z,533.3077
2023-05-24T16:27:09.526Z,530.8461
2023-05-24T16:28:11.579Z,501.6923
2023-05-24T16:29:13.579Z,482.6923
2023-05-24T16:30:15.731Z,485.1538
2023-05-24T16:31:17.755Z,479.3846
2023-05-24T16:32:19.827Z,490.4615
2023-05-24T16:33:21.763Z,471.5385
2023-05-24T16:34:23.820Z,473.9231
2023-05-24T16:35:25.915Z,474.5385
2023-05-24T16:36:27.865Z,484.6923
2023-05-24T16:37:29.947Z,483.4615
2023-05-24T16:38:33.220Z,484.6154
2023-05-24T16:39:34.105Z,485.2308
2023-05-24T16:40:36.106Z,487.1538
2023-05-24T16:41:38.378Z,484.0769